sensor_id;sensor_type;location;lat;lon;timestamp;temperature;humidity
24158;DHT22;12316;50.904;4.200;2023-08-01T00:00:56;18.00;99.90
24158;DHT22;12316;50.904;4.200;2023-08-01T00:03:22;18.10;99.90
24158;DHT22;12316;50.904;4.200;2023-08-01T00:05:47;18.20;99.90
24158;DHT22;12316;50.904;4.200;2023-08-01T00:08:13;18.20;99.90
24158;DHT22;12316;50.904;4.200;2023-08-01T00:10:42;18.20;99.90
24158;DHT22;12316;50.904;4.200;2023-08-01T00:13:08;18.20;99.90
24158;DHT22;12316;50.904;4.200;2023-08-01T00:15:34;18.00;99.90
24158;DHT22;12316;50.904;4.200;2023-08-01T00:18:00;18.10;99.90
24158;DHT22;12316;50.904;4.200;2023-08-01T00:20:26;18.00;99.90
24158;DHT22;12316;50.904;4.200;2023-08-01T00:22:51;18.10;99.90
24158;DHT22;12316;50.904;4.200;2023-08-01T00:25:17;18.10;99.90
24158;DHT22;12316;50.904;4.200;2023-08-01T00:27:43;18.10;99.90
24158;DHT22;12316;50.904;4.200;2023-08-01T00:30:09;18.00;99.90
24158;DHT22;12316;50.904;4.200;2023-08-01T00:32:36;18.10;99.90
24158;DHT22;12316;50.904;4.200;2023-08-01T00:35:01;18.10;99.90
24158;DHT22;12316;50.904;4.200;2023-08-01T00:37:28;18.10;99.90
24158;DHT22;12316;50.904;4.200;2023-08-01T00:39:53;18.10;99.90
24158;DHT22;12316;50.904;4.200;2023-08-01T00:42:19;18.10;99.90
24158;DHT22;12316;50.904;4.200;2023-08-01T00:44:45;18.00;99.90
24158;DHT22;12316;50.904;4.200;2023-08-01T00:47:13;17.90;99.90
24158;DHT22;12316;50.904;4.200;2023-08-01T00:49:39;17.90;99.90
24158;DHT22;12316;50.904;4.200;2023-08-01T00:52:05;18.00;99.90
24158;DHT22;12316;50.904;4.200;2023-08-01T00:54:31;18.00;99.90
24158;DHT22;12316;50.904;4.200;2023-08-01T00:57:02;18.10;99.90
24158;DHT22;12316;50.904;4.200;2023-08-01T00:59:28;18.00;99.90
24158;DHT22;12316;50.904;4.200;2023-08-01T01:01:54;17.90;99.90
24158;DHT22;12316;50.904;4.200;2023-08-01T01:04:20;18.00;99.90
24158;DHT22;12316;50.904;4.200;2023-08-01T01:07:02;17.90;99.90
24158;DHT22;12316;50.904;4.200;2023-08-01T01:09:29;17.80;99.90
24158;DHT22;12316;50.904;4.200;2023-08-01T01:11:57;17.80;99.90
24158;DHT22;12316;50.904;4.200;2023-08-01T01:14:26;17.80;99.90
24158;DHT22;12316;50.904;4.200;2023-08-01T01:16:53;17.90;99.90
24158;DHT22;12316;50.904;4.200;2023-08-01T01:19:19;17.90;99.90
24158;DHT22;12316;50.904;4.200;2023-08-01T01:21:45;17.90;99.90
24158;DHT22;12316;50.904;4.200;2023-08-01T01:24:12;17.90;99.90
24158;DHT22;12316;50.904;4.200;2023-08-01T01:26:41;17.80;99.90
24158;DHT22;12316;50.904;4.200;2023-08-01T01:29:07;17.90;99.90
24158;DHT22;12316;50.904;4.200;2023-08-01T01:31:36;17.90;99.90
24158;DHT22;12316;50.904;4.200;2023-08-01T01:34:03;18.00;99.90
24158;DHT22;12316;50.904;4.200;2023-08-01T01:36:29;18.00;99.90
24158;DHT22;12316;50.904;4.200;2023-08-01T01:38:55;18.00;99.90
24158;DHT22;12316;50.904;4.200;2023-08-01T01:41:20;18.00;99.90
24158;DHT22;12316;50.904;4.200;2023-08-01T01:43:46;18.00;99.90
24158;DHT22;12316;50.904;4.200;2023-08-01T01:46:12;18.00;99.90
24158;DHT22;12316;50.904;4.200;2023-08-01T01:48:37;17.90;99.90
24158;DHT22;12316;50.904;4.200;2023-08-01T01:51:03;17.90;99.90
24158;DHT22;12316;50.904;4.200;2023-08-01T01:53:28;17.90;99.90
24158;DHT22;12316;50.904;4.200;2023-08-01T01:55:54;18.00;99.90
24158;DHT22;12316;50.904;4.200;2023-08-01T01:58:20;18.10;99.90
24158;DHT22;12316;50.904;4.200;2023-08-01T02:00:46;18.10;99.90
24158;DHT22;12316;50.904;4.200;2023-08-01T02:03:11;17.90;99.90
24158;DHT22;12316;50.904;4.200;2023-08-01T02:05:40;18.10;99.90
24158;DHT22;12316;50.904;4.200;2023-08-01T02:08:06;18.00;99.90
24158;DHT22;12316;50.904;4.200;2023-08-01T02:10:31;18.00;99.90
24158;DHT22;12316;50.904;4.200;2023-08-01T02:12:57;17.90;99.90
24158;DHT22;12316;50.904;4.200;2023-08-01T02:15:23;17.90;99.90
24158;DHT22;12316;50.904;4.200;2023-08-01T02:17:49;17.80;99.90
24158;DHT22;12316;50.904;4.200;2023-08-01T02:20:14;17.80;99.90
24158;DHT22;12316;50.904;4.200;2023-08-01T02:22:40;17.80;99.90
24158;DHT22;12316;50.904;4.200;2023-08-01T02:25:05;17.90;99.90
24158;DHT22;12316;50.904;4.200;2023-08-01T02:27:31;17.90;99.90
24158;DHT22;12316;50.904;4.200;2023-08-01T02:29:57;17.80;99.90
24158;DHT22;12316;50.904;4.200;2023-08-01T02:32:23;17.80;99.90
24158;DHT22;12316;50.904;4.200;2023-08-01T02:34:49;17.80;99.90
24158;DHT22;12316;50.904;4.200;2023-08-01T02:37:14;17.70;99.90
24158;DHT22;12316;50.904;4.200;2023-08-01T02:39:40;17.70;99.90
24158;DHT22;12316;50.904;4.200;2023-08-01T02:42:06;17.70;99.90
24158;DHT22;12316;50.904;4.200;2023-08-01T02:44:31;17.60;99.90
24158;DHT22;12316;50.904;4.200;2023-08-01T02:46:57;17.60;99.90
24158;DHT22;12316;50.904;4.200;2023-08-01T02:49:23;17.70;99.90
24158;DHT22;12316;50.904;4.200;2023-08-01T02:51:48;17.70;99.90
24158;DHT22;12316;50.904;4.200;2023-08-01T02:54:14;17.80;99.90
24158;DHT22;12316;50.904;4.200;2023-08-01T02:56:40;17.90;99.90
24158;DHT22;12316;50.904;4.200;2023-08-01T02:59:07;17.80;99.90
24158;DHT22;12316;50.904;4.200;2023-08-01T03:01:34;17.80;99.90
24158;DHT22;12316;50.904;4.200;2023-08-01T03:04:04;17.80;99.90
24158;DHT22;12316;50.904;4.200;2023-08-01T03:06:31;17.90;99.90
24158;DHT22;12316;50.904;4.200;2023-08-01T03:08:57;17.80;99.90
24158;DHT22;12316;50.904;4.200;2023-08-01T03:11:22;18.00;99.90
24158;DHT22;12316;50.904;4.200;2023-08-01T03:13:48;17.70;99.90
24158;DHT22;12316;50.904;4.200;2023-08-01T03:16:14;17.80;99.90
24158;DHT22;12316;50.904;4.200;2023-08-01T03:18:40;17.70;99.90
24158;DHT22;12316;50.904;4.200;2023-08-01T03:21:06;17.70;99.90
24158;DHT22;12316;50.904;4.200;2023-08-01T03:23:32;17.70;99.90
24158;DHT22;12316;50.904;4.200;2023-08-01T03:25:57;17.80;99.90
24158;DHT22;12316;50.904;4.200;2023-08-01T03:28:24;17.70;99.90
24158;DHT22;12316;50.904;4.200;2023-08-01T03:30:50;17.60;99.90
24158;DHT22;12316;50.904;4.200;2023-08-01T03:33:16;17.50;99.90
24158;DHT22;12316;50.904;4.200;2023-08-01T03:35:42;17.60;99.90
24158;DHT22;12316;50.904;4.200;2023-08-01T03:38:07;17.60;99.90
24158;DHT22;12316;50.904;4.200;2023-08-01T03:40:33;17.60;99.90
24158;DHT22;12316;50.904;4.200;2023-08-01T03:42:58;17.50;99.90
24158;DHT22;12316;50.904;4.200;2023-08-01T03:45:24;17.60;99.90
24158;DHT22;12316;50.904;4.200;2023-08-01T03:47:50;17.60;99.90
24158;DHT22;12316;50.904;4.200;2023-08-01T03:50:15;17.40;99.90
24158;DHT22;12316;50.904;4.200;2023-08-01T03:52:41;17.60;99.90
24158;DHT22;12316;50.904;4.200;2023-08-01T03:55:07;17.70;99.90
24158;DHT22;12316;50.904;4.200;2023-08-01T03:57:32;17.70;99.90
24158;DHT22;12316;50.904;4.200;2023-08-01T03:59:59;17.80;99.90
24158;DHT22;12316;50.904;4.200;2023-08-01T04:02:25;17.80;99.90
24158;DHT22;12316;50.904;4.200;2023-08-01T04:04:50;17.70;99.90
24158;DHT22;12316;50.904;4.200;2023-08-01T04:07:16;17.60;99.90
24158;DHT22;12316;50.904;4.200;2023-08-01T04:09:42;17.50;99.90
24158;DHT22;12316;50.904;4.200;2023-08-01T04:12:07;17.50;99.90
24158;DHT22;12316;50.904;4.200;2023-08-01T04:14:34;17.50;99.90
24158;DHT22;12316;50.904;4.200;2023-08-01T04:16:59;17.60;99.90
24158;DHT22;12316;50.904;4.200;2023-08-01T04:19:25;17.70;99.90
24158;DHT22;12316;50.904;4.200;2023-08-01T04:21:51;17.70;99.90
24158;DHT22;12316;50.904;4.200;2023-08-01T04:24:16;17.70;99.90
24158;DHT22;12316;50.904;4.200;2023-08-01T04:26:42;17.70;99.90
24158;DHT22;12316;50.904;4.200;2023-08-01T04:29:07;17.60;99.90
24158;DHT22;12316;50.904;4.200;2023-08-01T04:31:33;17.60;99.90
24158;DHT22;12316;50.904;4.200;2023-08-01T04:33:59;17.40;99.90
24158;DHT22;12316;50.904;4.200;2023-08-01T04:36:24;17.20;99.90
24158;DHT22;12316;50.904;4.200;2023-08-01T04:38:50;17.20;99.90
24158;DHT22;12316;50.904;4.200;2023-08-01T04:41:15;17.20;99.90
24158;DHT22;12316;50.904;4.200;2023-08-01T04:43:41;17.20;99.90
24158;DHT22;12316;50.904;4.200;2023-08-01T04:46:06;17.30;99.90
24158;DHT22;12316;50.904;4.200;2023-08-01T04:48:32;17.40;99.90
24158;DHT22;12316;50.904;4.200;2023-08-01T04:50:58;17.30;99.90
24158;DHT22;12316;50.904;4.200;2023-08-01T04:53:23;17.30;99.90
24158;DHT22;12316;50.904;4.200;2023-08-01T04:55:49;17.40;99.90
24158;DHT22;12316;50.904;4.200;2023-08-01T04:58:15;17.40;99.90
24158;DHT22;12316;50.904;4.200;2023-08-01T05:00:41;17.60;99.90
24158;DHT22;12316;50.904;4.200;2023-08-01T05:03:07;17.70;99.90
24158;DHT22;12316;50.904;4.200;2023-08-01T05:05:33;17.80;99.90
24158;DHT22;12316;50.904;4.200;2023-08-01T05:07:59;17.80;99.90
24158;DHT22;12316;50.904;4.200;2023-08-01T05:10:24;17.70;99.90
24158;DHT22;12316;50.904;4.200;2023-08-01T05:12:50;17.80;99.90
24158;DHT22;12316;50.904;4.200;2023-08-01T05:15:15;17.80;99.90
24158;DHT22;12316;50.904;4.200;2023-08-01T05:17:41;17.80;99.90
24158;DHT22;12316;50.904;4.200;2023-08-01T05:20:07;17.90;99.90
24158;DHT22;12316;50.904;4.200;2023-08-01T05:22:33;17.90;99.90
24158;DHT22;12316;50.904;4.200;2023-08-01T05:25:00;18.10;99.90
24158;DHT22;12316;50.904;4.200;2023-08-01T05:27:27;18.00;99.90
24158;DHT22;12316;50.904;4.200;2023-08-01T05:29:53;18.10;99.90
24158;DHT22;12316;50.904;4.200;2023-08-01T05:32:18;18.10;99.90
24158;DHT22;12316;50.904;4.200;2023-08-01T05:34:44;18.10;99.90
24158;DHT22;12316;50.904;4.200;2023-08-01T05:37:09;18.10;99.90
24158;DHT22;12316;50.904;4.200;2023-08-01T05:39:35;18.20;99.90
24158;DHT22;12316;50.904;4.200;2023-08-01T05:42:00;18.30;99.90
24158;DHT22;12316;50.904;4.200;2023-08-01T05:44:28;18.40;99.90
24158;DHT22;12316;50.904;4.200;2023-08-01T05:46:54;18.50;99.90
24158;DHT22;12316;50.904;4.200;2023-08-01T05:49:19;18.60;99.90
24158;DHT22;12316;50.904;4.200;2023-08-01T05:51:46;18.70;99.90
24158;DHT22;12316;50.904;4.200;2023-08-01T05:54:11;18.60;99.90
24158;DHT22;12316;50.904;4.200;2023-08-01T05:56:37;18.70;99.90
24158;DHT22;12316;50.904;4.200;2023-08-01T05:59:03;18.50;99.90
24158;DHT22;12316;50.904;4.200;2023-08-01T06:01:29;18.60;99.90
24158;DHT22;12316;50.904;4.200;2023-08-01T06:03:54;18.60;99.90
24158;DHT22;12316;50.904;4.200;2023-08-01T06:06:20;18.50;99.90
24158;DHT22;12316;50.904;4.200;2023-08-01T06:08:45;18.60;99.90
24158;DHT22;12316;50.904;4.200;2023-08-01T06:11:11;18.50;99.90
24158;DHT22;12316;50.904;4.200;2023-08-01T06:13:37;18.50;99.90
24158;DHT22;12316;50.904;4.200;2023-08-01T06:16:02;18.50;99.90
24158;DHT22;12316;50.904;4.200;2023-08-01T06:18:28;18.50;99.90
24158;DHT22;12316;50.904;4.200;2023-08-01T06:20:53;18.60;99.90
24158;DHT22;12316;50.904;4.200;2023-08-01T06:23:19;18.70;99.90
24158;DHT22;12316;50.904;4.200;2023-08-01T06:25:44;18.80;99.90
24158;DHT22;12316;50.904;4.200;2023-08-01T06:28:10;18.70;99.90
24158;DHT22;12316;50.904;4.200;2023-08-01T06:30:36;18.70;99.90
24158;DHT22;12316;50.904;4.200;2023-08-01T06:33:01;18.70;99.90
24158;DHT22;12316;50.904;4.200;2023-08-01T06:35:27;18.50;99.90
24158;DHT22;12316;50.904;4.200;2023-08-01T06:37:52;18.60;99.90
24158;DHT22;12316;50.904;4.200;2023-08-01T06:40:18;18.60;99.90
24158;DHT22;12316;50.904;4.200;2023-08-01T06:42:43;18.70;99.90
24158;DHT22;12316;50.904;4.200;2023-08-01T06:45:09;18.80;99.90
24158;DHT22;12316;50.904;4.200;2023-08-01T06:47:35;19.00;99.90
24158;DHT22;12316;50.904;4.200;2023-08-01T06:50:00;19.10;99.90
24158;DHT22;12316;50.904;4.200;2023-08-01T06:52:26;19.30;99.90
24158;DHT22;12316;50.904;4.200;2023-08-01T06:54:51;19.50;99.90
24158;DHT22;12316;50.904;4.200;2023-08-01T06:57:17;19.60;99.90
24158;DHT22;12316;50.904;4.200;2023-08-01T06:59:43;19.70;99.90
24158;DHT22;12316;50.904;4.200;2023-08-01T07:02:08;19.70;99.90
24158;DHT22;12316;50.904;4.200;2023-08-01T07:04:35;19.60;99.90
24158;DHT22;12316;50.904;4.200;2023-08-01T07:07:01;19.70;99.90
24158;DHT22;12316;50.904;4.200;2023-08-01T07:09:26;19.60;99.90
24158;DHT22;12316;50.904;4.200;2023-08-01T07:11:52;19.70;99.90
24158;DHT22;12316;50.904;4.200;2023-08-01T07:14:17;19.60;99.90
24158;DHT22;12316;50.904;4.200;2023-08-01T07:16:43;19.60;99.90
24158;DHT22;12316;50.904;4.200;2023-08-01T07:19:09;19.50;99.90
24158;DHT22;12316;50.904;4.200;2023-08-01T07:21:34;19.50;99.90
24158;DHT22;12316;50.904;4.200;2023-08-01T07:24:00;19.70;99.90
24158;DHT22;12316;50.904;4.200;2023-08-01T07:26:26;19.70;99.90
24158;DHT22;12316;50.904;4.200;2023-08-01T07:28:54;19.60;99.90
24158;DHT22;12316;50.904;4.200;2023-08-01T07:31:19;19.70;99.90
24158;DHT22;12316;50.904;4.200;2023-08-01T07:33:45;19.60;99.90
24158;DHT22;12316;50.904;4.200;2023-08-01T07:36:10;19.60;99.90
24158;DHT22;12316;50.904;4.200;2023-08-01T07:38:36;19.60;99.90
24158;DHT22;12316;50.904;4.200;2023-08-01T07:41:03;19.60;99.90
24158;DHT22;12316;50.904;4.200;2023-08-01T07:43:29;19.60;99.90
24158;DHT22;12316;50.904;4.200;2023-08-01T07:45:56;19.60;99.90
24158;DHT22;12316;50.904;4.200;2023-08-01T07:48:22;19.70;99.90
24158;DHT22;12316;50.904;4.200;2023-08-01T07:50:48;19.80;99.90
24158;DHT22;12316;50.904;4.200;2023-08-01T07:53:14;20.00;99.90
24158;DHT22;12316;50.904;4.200;2023-08-01T07:55:40;20.10;99.90
24158;DHT22;12316;50.904;4.200;2023-08-01T07:58:06;20.10;99.90
24158;DHT22;12316;50.904;4.200;2023-08-01T08:00:34;20.10;99.90
24158;DHT22;12316;50.904;4.200;2023-08-01T08:03:01;19.90;99.90
24158;DHT22;12316;50.904;4.200;2023-08-01T08:05:27;20.00;99.90
24158;DHT22;12316;50.904;4.200;2023-08-01T08:07:52;20.00;99.90
24158;DHT22;12316;50.904;4.200;2023-08-01T08:10:18;20.10;99.90
24158;DHT22;12316;50.904;4.200;2023-08-01T08:12:43;20.30;99.90
24158;DHT22;12316;50.904;4.200;2023-08-01T08:15:09;20.30;99.90
24158;DHT22;12316;50.904;4.200;2023-08-01T08:17:35;20.20;99.90
24158;DHT22;12316;50.904;4.200;2023-08-01T08:20:00;20.20;99.90
24158;DHT22;12316;50.904;4.200;2023-08-01T08:22:26;20.30;99.90
24158;DHT22;12316;50.904;4.200;2023-08-01T08:24:53;20.20;99.90
24158;DHT22;12316;50.904;4.200;2023-08-01T08:27:18;20.20;99.90
24158;DHT22;12316;50.904;4.200;2023-08-01T08:29:44;20.20;99.90
24158;DHT22;12316;50.904;4.200;2023-08-01T08:32:10;20.20;99.90
24158;DHT22;12316;50.904;4.200;2023-08-01T08:34:36;20.30;99.90
24158;DHT22;12316;50.904;4.200;2023-08-01T08:37:02;20.60;99.90
24158;DHT22;12316;50.904;4.200;2023-08-01T08:39:28;20.90;99.90
24158;DHT22;12316;50.904;4.200;2023-08-01T08:41:53;21.00;99.90
24158;DHT22;12316;50.904;4.200;2023-08-01T08:44:19;21.00;99.90
24158;DHT22;12316;50.904;4.200;2023-08-01T08:46:51;21.10;99.90
24158;DHT22;12316;50.904;4.200;2023-08-01T08:49:20;21.20;99.90
24158;DHT22;12316;50.904;4.200;2023-08-01T08:51:47;21.20;99.90
24158;DHT22;12316;50.904;4.200;2023-08-01T08:54:14;21.20;99.90
24158;DHT22;12316;50.904;4.200;2023-08-01T08:56:41;21.20;99.90
24158;DHT22;12316;50.904;4.200;2023-08-01T08:59:10;21.10;99.90
24158;DHT22;12316;50.904;4.200;2023-08-01T09:01:36;21.00;99.90
24158;DHT22;12316;50.904;4.200;2023-08-01T09:04:03;21.00;99.90
24158;DHT22;12316;50.904;4.200;2023-08-01T09:06:32;21.10;99.90
24158;DHT22;12316;50.904;4.200;2023-08-01T09:09:12;21.10;99.90
24158;DHT22;12316;50.904;4.200;2023-08-01T09:11:46;20.90;99.90
24158;DHT22;12316;50.904;4.200;2023-08-01T09:14:12;20.50;99.90
24158;DHT22;12316;50.904;4.200;2023-08-01T09:16:40;20.10;99.90
24158;DHT22;12316;50.904;4.200;2023-08-01T09:19:06;19.90;99.90
24158;DHT22;12316;50.904;4.200;2023-08-01T09:21:33;19.90;99.90
24158;DHT22;12316;50.904;4.200;2023-08-01T09:24:18;19.90;99.90
24158;DHT22;12316;50.904;4.200;2023-08-01T09:26:47;20.10;99.90
24158;DHT22;12316;50.904;4.200;2023-08-01T09:29:12;20.30;99.90
24158;DHT22;12316;50.904;4.200;2023-08-01T09:31:40;20.60;99.90
24158;DHT22;12316;50.904;4.200;2023-08-01T09:34:21;20.70;99.90
24158;DHT22;12316;50.904;4.200;2023-08-01T09:36:47;20.70;99.90
24158;DHT22;12316;50.904;4.200;2023-08-01T09:39:20;20.60;99.90
24158;DHT22;12316;50.904;4.200;2023-08-01T09:41:54;20.60;99.90
24158;DHT22;12316;50.904;4.200;2023-08-01T09:44:20;20.60;99.90
24158;DHT22;12316;50.904;4.200;2023-08-01T09:47:04;20.60;99.90
24158;DHT22;12316;50.904;4.200;2023-08-01T09:49:32;20.60;99.90
24158;DHT22;12316;50.904;4.200;2023-08-01T09:51:59;20.70;99.90
24158;DHT22;12316;50.904;4.200;2023-08-01T09:54:24;20.70;99.90
24158;DHT22;12316;50.904;4.200;2023-08-01T09:56:52;20.90;99.90
24158;DHT22;12316;50.904;4.200;2023-08-01T09:59:25;20.80;99.90
24158;DHT22;12316;50.904;4.200;2023-08-01T10:01:53;21.00;99.90
24158;DHT22;12316;50.904;4.200;2023-08-01T10:04:38;21.10;99.90
24158;DHT22;12316;50.904;4.200;2023-08-01T10:07:11;21.40;99.90
24158;DHT22;12316;50.904;4.200;2023-08-01T10:09:37;21.70;99.90
24158;DHT22;12316;50.904;4.200;2023-08-01T10:12:05;22.00;99.90
24158;DHT22;12316;50.904;4.200;2023-08-01T10:14:35;22.30;99.90
24158;DHT22;12316;50.904;4.200;2023-08-01T10:17:02;22.40;99.90
24158;DHT22;12316;50.904;4.200;2023-08-01T10:19:31;22.50;99.90
24158;DHT22;12316;50.904;4.200;2023-08-01T10:21:58;22.60;99.90
24158;DHT22;12316;50.904;4.200;2023-08-01T10:24:24;22.70;99.90
24158;DHT22;12316;50.904;4.200;2023-08-01T10:26:51;22.80;99.90
24158;DHT22;12316;50.904;4.200;2023-08-01T10:29:16;22.80;99.90
24158;DHT22;12316;50.904;4.200;2023-08-01T10:31:53;22.70;99.90
24158;DHT22;12316;50.904;4.200;2023-08-01T10:34:19;22.70;99.90
24158;DHT22;12316;50.904;4.200;2023-08-01T10:36:57;22.60;99.90
24158;DHT22;12316;50.904;4.200;2023-08-01T10:39:25;22.80;99.90
24158;DHT22;12316;50.904;4.200;2023-08-01T10:42:01;22.90;99.90
24158;DHT22;12316;50.904;4.200;2023-08-01T10:44:28;22.70;99.90
24158;DHT22;12316;50.904;4.200;2023-08-01T10:47:02;22.60;99.90
24158;DHT22;12316;50.904;4.200;2023-08-01T10:52:00;22.40;99.90
24158;DHT22;12316;50.904;4.200;2023-08-01T10:54:26;22.20;99.90
24158;DHT22;12316;50.904;4.200;2023-08-01T10:56:54;22.30;99.90
24158;DHT22;12316;50.904;4.200;2023-08-01T10:59:21;22.30;99.90
24158;DHT22;12316;50.904;4.200;2023-08-01T11:01:49;22.20;99.90
24158;DHT22;12316;50.904;4.200;2023-08-01T11:04:16;22.20;99.90
24158;DHT22;12316;50.904;4.200;2023-08-01T11:06:44;22.20;99.90
24158;DHT22;12316;50.904;4.200;2023-08-01T11:09:25;22.30;99.90
24158;DHT22;12316;50.904;4.200;2023-08-01T11:11:55;22.40;99.90
24158;DHT22;12316;50.904;4.200;2023-08-01T11:14:23;22.30;99.90
24158;DHT22;12316;50.904;4.200;2023-08-01T11:16:49;22.30;99.90
24158;DHT22;12316;50.904;4.200;2023-08-01T11:19:33;22.20;99.90
24158;DHT22;12316;50.904;4.200;2023-08-01T11:22:08;22.30;99.90
24158;DHT22;12316;50.904;4.200;2023-08-01T11:24:34;22.30;99.90
24158;DHT22;12316;50.904;4.200;2023-08-01T11:27:00;22.70;99.90
24158;DHT22;12316;50.904;4.200;2023-08-01T11:29:25;23.00;99.90
24158;DHT22;12316;50.904;4.200;2023-08-01T11:31:55;23.20;99.90
24158;DHT22;12316;50.904;4.200;2023-08-01T11:34:22;23.10;99.90
24158;DHT22;12316;50.904;4.200;2023-08-01T11:36:48;22.90;99.90
24158;DHT22;12316;50.904;4.200;2023-08-01T11:39:15;22.60;99.90
24158;DHT22;12316;50.904;4.200;2023-08-01T11:41:42;22.30;99.90
24158;DHT22;12316;50.904;4.200;2023-08-01T11:44:08;22.10;99.90
24158;DHT22;12316;50.904;4.200;2023-08-01T11:46:36;22.00;99.90
24158;DHT22;12316;50.904;4.200;2023-08-01T11:49:03;22.00;99.90
24158;DHT22;12316;50.904;4.200;2023-08-01T11:51:29;22.00;99.90
24158;DHT22;12316;50.904;4.200;2023-08-01T11:53:59;22.30;99.90
24158;DHT22;12316;50.904;4.200;2023-08-01T11:56:25;22.50;99.90
24158;DHT22;12316;50.904;4.200;2023-08-01T11:58:50;22.60;99.90
24158;DHT22;12316;50.904;4.200;2023-08-01T12:01:17;22.60;99.90
24158;DHT22;12316;50.904;4.200;2023-08-01T12:03:54;22.70;99.90
24158;DHT22;12316;50.904;4.200;2023-08-01T12:06:22;22.50;99.90
24158;DHT22;12316;50.904;4.200;2023-08-01T12:08:50;22.30;99.90
24158;DHT22;12316;50.904;4.200;2023-08-01T12:11:24;22.10;99.90
24158;DHT22;12316;50.904;4.200;2023-08-01T12:14:12;21.90;99.90
24158;DHT22;12316;50.904;4.200;2023-08-01T12:16:43;21.70;99.90
24158;DHT22;12316;50.904;4.200;2023-08-01T12:19:10;21.60;99.90
24158;DHT22;12316;50.904;4.200;2023-08-01T12:21:37;21.50;99.90
24158;DHT22;12316;50.904;4.200;2023-08-01T12:24:03;21.50;99.90
24158;DHT22;12316;50.904;4.200;2023-08-01T12:26:29;21.40;99.90
24158;DHT22;12316;50.904;4.200;2023-08-01T12:28:54;21.40;99.90
24158;DHT22;12316;50.904;4.200;2023-08-01T12:31:21;21.40;99.90
24158;DHT22;12316;50.904;4.200;2023-08-01T12:33:48;21.40;99.90
24158;DHT22;12316;50.904;4.200;2023-08-01T12:36:16;21.50;99.90
24158;DHT22;12316;50.904;4.200;2023-08-01T12:38:42;21.70;99.90
24158;DHT22;12316;50.904;4.200;2023-08-01T12:41:07;21.80;99.90
24158;DHT22;12316;50.904;4.200;2023-08-01T12:43:33;21.70;99.90
24158;DHT22;12316;50.904;4.200;2023-08-01T12:45:59;21.70;99.90
24158;DHT22;12316;50.904;4.200;2023-08-01T12:48:25;21.70;99.90
24158;DHT22;12316;50.904;4.200;2023-08-01T12:50:51;21.90;99.90
24158;DHT22;12316;50.904;4.200;2023-08-01T12:53:17;22.00;99.90
24158;DHT22;12316;50.904;4.200;2023-08-01T12:55:46;22.10;99.90
24158;DHT22;12316;50.904;4.200;2023-08-01T12:58:12;22.20;99.90
24158;DHT22;12316;50.904;4.200;2023-08-01T13:00:40;22.40;99.90
24158;DHT22;12316;50.904;4.200;2023-08-01T13:03:06;22.60;99.90
24158;DHT22;12316;50.904;4.200;2023-08-01T13:05:35;22.80;99.90
24158;DHT22;12316;50.904;4.200;2023-08-01T13:08:01;22.90;99.90
24158;DHT22;12316;50.904;4.200;2023-08-01T13:10:33;22.60;99.90
24158;DHT22;12316;50.904;4.200;2023-08-01T13:12:59;22.40;99.90
24158;DHT22;12316;50.904;4.200;2023-08-01T13:15:25;22.20;99.90
24158;DHT22;12316;50.904;4.200;2023-08-01T13:17:51;22.10;99.90
24158;DHT22;12316;50.904;4.200;2023-08-01T13:20:17;21.90;99.90
24158;DHT22;12316;50.904;4.200;2023-08-01T13:22:46;22.00;99.90
24158;DHT22;12316;50.904;4.200;2023-08-01T13:25:16;22.10;99.90
24158;DHT22;12316;50.904;4.200;2023-08-01T13:27:42;22.10;99.90
24158;DHT22;12316;50.904;4.200;2023-08-01T13:30:08;22.10;99.90
24158;DHT22;12316;50.904;4.200;2023-08-01T13:32:34;22.00;99.90
24158;DHT22;12316;50.904;4.200;2023-08-01T13:35:00;21.90;99.90
24158;DHT22;12316;50.904;4.200;2023-08-01T13:37:26;21.90;99.90
24158;DHT22;12316;50.904;4.200;2023-08-01T13:39:53;22.10;99.90
24158;DHT22;12316;50.904;4.200;2023-08-01T13:42:18;22.30;99.90
24158;DHT22;12316;50.904;4.200;2023-08-01T13:44:44;22.60;99.90
24158;DHT22;12316;50.904;4.200;2023-08-01T13:47:10;22.80;99.90
24158;DHT22;12316;50.904;4.200;2023-08-01T13:49:36;22.90;99.90
24158;DHT22;12316;50.904;4.200;2023-08-01T13:52:01;22.80;99.90
24158;DHT22;12316;50.904;4.200;2023-08-01T13:54:28;22.50;99.90
24158;DHT22;12316;50.904;4.200;2023-08-01T13:56:54;22.40;99.90
24158;DHT22;12316;50.904;4.200;2023-08-01T13:59:20;22.30;99.90
24158;DHT22;12316;50.904;4.200;2023-08-01T14:01:46;22.00;99.90
24158;DHT22;12316;50.904;4.200;2023-08-01T14:04:12;21.90;99.90
24158;DHT22;12316;50.904;4.200;2023-08-01T14:06:40;21.60;99.90
24158;DHT22;12316;50.904;4.200;2023-08-01T14:09:07;21.10;99.90
24158;DHT22;12316;50.904;4.200;2023-08-01T14:11:34;20.70;99.90
24158;DHT22;12316;50.904;4.200;2023-08-01T14:14:00;20.50;99.90
24158;DHT22;12316;50.904;4.200;2023-08-01T14:16:25;20.50;99.90
24158;DHT22;12316;50.904;4.200;2023-08-01T14:18:51;20.40;99.90
24158;DHT22;12316;50.904;4.200;2023-08-01T14:21:16;20.40;99.90
24158;DHT22;12316;50.904;4.200;2023-08-01T14:23:42;20.40;99.90
24158;DHT22;12316;50.904;4.200;2023-08-01T14:26:08;20.40;99.90
24158;DHT22;12316;50.904;4.200;2023-08-01T14:28:34;20.50;99.90
24158;DHT22;12316;50.904;4.200;2023-08-01T14:31:03;20.60;99.90
24158;DHT22;12316;50.904;4.200;2023-08-01T14:33:29;20.60;99.90
24158;DHT22;12316;50.904;4.200;2023-08-01T14:35:55;20.80;99.90
24158;DHT22;12316;50.904;4.200;2023-08-01T14:38:21;20.90;99.90
24158;DHT22;12316;50.904;4.200;2023-08-01T14:40:47;20.90;99.90
24158;DHT22;12316;50.904;4.200;2023-08-01T14:43:13;21.00;99.90
24158;DHT22;12316;50.904;4.200;2023-08-01T14:45:39;21.00;99.90
24158;DHT22;12316;50.904;4.200;2023-08-01T14:48:06;20.80;99.90
24158;DHT22;12316;50.904;4.200;2023-08-01T14:50:32;20.60;99.90
24158;DHT22;12316;50.904;4.200;2023-08-01T14:52:57;20.40;99.90
24158;DHT22;12316;50.904;4.200;2023-08-01T14:55:23;20.30;99.90
24158;DHT22;12316;50.904;4.200;2023-08-01T14:57:49;20.20;99.90
24158;DHT22;12316;50.904;4.200;2023-08-01T15:00:15;20.30;99.90
24158;DHT22;12316;50.904;4.200;2023-08-01T15:02:42;20.30;99.90
24158;DHT22;12316;50.904;4.200;2023-08-01T15:05:08;20.30;99.90
24158;DHT22;12316;50.904;4.200;2023-08-01T15:07:33;20.30;99.90
24158;DHT22;12316;50.904;4.200;2023-08-01T15:09:59;20.20;99.90
24158;DHT22;12316;50.904;4.200;2023-08-01T15:12:25;20.10;99.90
24158;DHT22;12316;50.904;4.200;2023-08-01T15:14:54;19.60;99.90
24158;DHT22;12316;50.904;4.200;2023-08-01T15:17:20;19.50;99.90
24158;DHT22;12316;50.904;4.200;2023-08-01T15:19:46;19.50;99.90
24158;DHT22;12316;50.904;4.200;2023-08-01T15:22:19;19.50;99.90
24158;DHT22;12316;50.904;4.200;2023-08-01T15:24:45;19.60;99.90
24158;DHT22;12316;50.904;4.200;2023-08-01T15:27:12;19.80;99.90
24158;DHT22;12316;50.904;4.200;2023-08-01T15:29:38;19.90;99.90